sensor_id;sensor_type;location;lat;lon;timestamp;P1;durP1;ratioP1;P2;durP2;ratioP2
86047;SDS011;76643;42.822;23.352;2024-02-23T00:00:53;19.13;;;11.13;;
86047;SDS011;76643;42.822;23.352;2024-02-23T00:03:18;19.20;;;11.73;;
86047;SDS011;76643;42.822;23.352;2024-02-23T00:05:44;20.92;;;10.88;;
86047;SDS011;76643;42.822;23.352;2024-02-23T00:08:09;23.58;;;13.05;;
86047;SDS011;76643;42.822;23.352;2024-02-23T00:10:34;20.52;;;11.00;;
86047;SDS011;76643;42.822;23.352;2024-02-23T00:13:00;20.58;;;10.40;;
86047;SDS011;76643;42.822;23.352;2024-02-23T00:15:26;20.17;;;10.98;;
86047;SDS011;76643;42.822;23.352;2024-02-23T00:17:51;18.73;;;11.23;;
86047;SDS011;76643;42.822;23.352;2024-02-23T00:20:16;17.63;;;10.90;;
86047;SDS011;76643;42.822;23.352;2024-02-23T00:22:42;20.17;;;11.85;;
86047;SDS011;76643;42.822;23.352;2024-02-23T00:25:07;18.02;;;10.07;;
86047;SDS011;76643;42.822;23.352;2024-02-23T00:27:33;17.02;;;10.25;;
86047;SDS011;76643;42.822;23.352;2024-02-23T00:29:59;17.13;;;10.40;;
86047;SDS011;76643;42.822;23.352;2024-02-23T00:32:24;18.58;;;11.73;;
86047;SDS011;76643;42.822;23.352;2024-02-23T00:34:50;15.70;;;10.40;;
86047;SDS011;76643;42.822;23.352;2024-02-23T00:37:15;18.55;;;10.93;;
86047;SDS011;76643;42.822;23.352;2024-02-23T00:39:40;18.27;;;10.60;;
86047;SDS011;76643;42.822;23.352;2024-02-23T00:42:06;19.60;;;10.98;;
86047;SDS011;76643;42.822;23.352;2024-02-23T00:44:32;21.15;;;11.73;;
86047;SDS011;76643;42.822;23.352;2024-02-23T00:46:58;22.63;;;12.38;;
86047;SDS011;76643;42.822;23.352;2024-02-23T00:49:26;20.73;;;12.48;;
86047;SDS011;76643;42.822;23.352;2024-02-23T00:51:52;20.48;;;13.20;;
86047;SDS011;76643;42.822;23.352;2024-02-23T00:54:17;23.35;;;12.02;;
86047;SDS011;76643;42.822;23.352;2024-02-23T00:56:42;20.33;;;11.25;;
86047;SDS011;76643;42.822;23.352;2024-02-23T00:59:08;21.25;;;11.05;;
86047;SDS011;76643;42.822;23.352;2024-02-23T01:01:33;22.83;;;12.47;;
86047;SDS011;76643;42.822;23.352;2024-02-23T01:03:58;17.55;;;10.95;;
86047;SDS011;76643;42.822;23.352;2024-02-23T01:06:24;17.80;;;11.48;;
86047;SDS011;76643;42.822;23.352;2024-02-23T01:08:50;18.63;;;11.23;;
86047;SDS011;76643;42.822;23.352;2024-02-23T01:11:15;21.42;;;11.15;;
86047;SDS011;76643;42.822;23.352;2024-02-23T01:13:41;19.88;;;11.00;;
86047;SDS011;76643;42.822;23.352;2024-02-23T01:16:06;21.27;;;11.10;;
86047;SDS011;76643;42.822;23.352;2024-02-23T01:18:31;17.15;;;10.98;;
86047;SDS011;76643;42.822;23.352;2024-02-23T01:20:57;16.83;;;10.27;;
86047;SDS011;76643;42.822;23.352;2024-02-23T01:23:22;17.25;;;10.48;;
86047;SDS011;76643;42.822;23.352;2024-02-23T01:25:48;16.17;;;9.98;;
86047;SDS011;76643;42.822;23.352;2024-02-23T01:28:13;17.10;;;10.98;;
86047;SDS011;76643;42.822;23.352;2024-02-23T01:30:38;17.02;;;10.30;;
86047;SDS011;76643;42.822;23.352;2024-02-23T01:33:04;18.13;;;10.77;;
86047;SDS011;76643;42.822;23.352;2024-02-23T01:35:29;20.20;;;9.93;;
86047;SDS011;76643;42.822;23.352;2024-02-23T01:37:55;18.42;;;9.65;;
86047;SDS011;76643;42.822;23.352;2024-02-23T01:40:20;16.55;;;9.65;;
86047;SDS011;76643;42.822;23.352;2024-02-23T01:42:46;17.45;;;12.30;;
86047;SDS011;76643;42.822;23.352;2024-02-23T01:45:11;15.50;;;9.53;;
86047;SDS011;76643;42.822;23.352;2024-02-23T01:47:36;19.42;;;10.70;;
86047;SDS011;76643;42.822;23.352;2024-02-23T01:50:03;21.13;;;12.60;;
86047;SDS011;76643;42.822;23.352;2024-02-23T01:52:28;17.60;;;11.43;;
86047;SDS011;76643;42.822;23.352;2024-02-23T01:54:54;17.60;;;10.43;;
86047;SDS011;76643;42.822;23.352;2024-02-23T01:57:21;18.75;;;10.52;;
86047;SDS011;76643;42.822;23.352;2024-02-23T01:59:48;17.48;;;10.23;;
86047;SDS011;76643;42.822;23.352;2024-02-23T02:02:14;15.90;;;9.52;;
86047;SDS011;76643;42.822;23.352;2024-02-23T02:04:39;16.95;;;10.02;;
86047;SDS011;76643;42.822;23.352;2024-02-23T02:07:04;17.70;;;9.60;;
86047;SDS011;76643;42.822;23.352;2024-02-23T02:09:30;15.98;;;9.48;;
86047;SDS011;76643;42.822;23.352;2024-02-23T02:11:55;19.13;;;11.73;;
86047;SDS011;76643;42.822;23.352;2024-02-23T02:14:21;17.17;;;9.70;;
86047;SDS011;76643;42.822;23.352;2024-02-23T02:16:47;18.70;;;11.27;;
86047;SDS011;76643;42.822;23.352;2024-02-23T02:19:12;19.85;;;10.60;;
86047;SDS011;76643;42.822;23.352;2024-02-23T02:21:39;22.58;;;10.65;;
86047;SDS011;76643;42.822;23.352;2024-02-23T02:24:06;17.52;;;10.10;;
86047;SDS011;76643;42.822;23.352;2024-02-23T02:26:31;18.23;;;10.35;;
86047;SDS011;76643;42.822;23.352;2024-02-23T02:28:57;20.58;;;10.65;;
86047;SDS011;76643;42.822;23.352;2024-02-23T02:31:22;19.13;;;10.15;;
86047;SDS011;76643;42.822;23.352;2024-02-23T02:33:48;14.05;;;8.50;;
86047;SDS011;76643;42.822;23.352;2024-02-23T02:36:13;14.93;;;8.88;;
86047;SDS011;76643;42.822;23.352;2024-02-23T02:38:38;17.73;;;9.63;;
86047;SDS011;76643;42.822;23.352;2024-02-23T02:41:04;17.27;;;9.02;;
86047;SDS011;76643;42.822;23.352;2024-02-23T02:43:30;16.45;;;9.10;;
86047;SDS011;76643;42.822;23.352;2024-02-23T02:45:56;15.48;;;10.00;;
86047;SDS011;76643;42.822;23.352;2024-02-23T02:48:22;15.88;;;10.13;;
86047;SDS011;76643;42.822;23.352;2024-02-23T02:50:48;16.20;;;9.70;;
86047;SDS011;76643;42.822;23.352;2024-02-23T02:53:15;17.83;;;9.73;;
86047;SDS011;76643;42.822;23.352;2024-02-23T02:55:43;17.55;;;8.80;;
86047;SDS011;76643;42.822;23.352;2024-02-23T02:58:09;19.55;;;10.57;;
86047;SDS011;76643;42.822;23.352;2024-02-23T03:00:36;16.55;;;10.50;;
86047;SDS011;76643;42.822;23.352;2024-02-23T03:03:01;15.93;;;9.52;;
86047;SDS011;76643;42.822;23.352;2024-02-23T03:05:27;17.00;;;9.68;;
86047;SDS011;76643;42.822;23.352;2024-02-23T03:07:52;16.50;;;10.10;;
86047;SDS011;76643;42.822;23.352;2024-02-23T03:10:18;18.35;;;10.63;;
86047;SDS011;76643;42.822;23.352;2024-02-23T03:12:43;19.20;;;9.93;;
86047;SDS011;76643;42.822;23.352;2024-02-23T03:15:08;18.02;;;10.43;;
86047;SDS011;76643;42.822;23.352;2024-02-23T03:17:35;12.50;;;8.15;;
86047;SDS011;76643;42.822;23.352;2024-02-23T03:20:00;14.00;;;8.95;;
86047;SDS011;76643;42.822;23.352;2024-02-23T03:22:26;17.23;;;9.73;;
86047;SDS011;76643;42.822;23.352;2024-02-23T03:24:52;19.63;;;11.10;;
86047;SDS011;76643;42.822;23.352;2024-02-23T03:27:17;17.88;;;10.90;;
86047;SDS011;76643;42.822;23.352;2024-02-23T03:29:42;16.33;;;10.32;;
86047;SDS011;76643;42.822;23.352;2024-02-23T03:32:08;16.88;;;9.30;;
86047;SDS011;76643;42.822;23.352;2024-02-23T03:34:33;18.05;;;9.98;;
86047;SDS011;76643;42.822;23.352;2024-02-23T03:36:59;17.60;;;10.40;;
86047;SDS011;76643;42.822;23.352;2024-02-23T03:39:26;14.10;;;8.60;;
86047;SDS011;76643;42.822;23.352;2024-02-23T03:41:51;12.75;;;9.30;;
86047;SDS011;76643;42.822;23.352;2024-02-23T03:44:17;25.80;;;12.90;;
86047;SDS011;76643;42.822;23.352;2024-02-23T03:46:42;23.20;;;12.00;;
86047;SDS011;76643;42.822;23.352;2024-02-23T03:49:07;25.80;;;14.80;;
86047;SDS011;76643;42.822;23.352;2024-02-23T03:51:33;24.05;;;13.02;;
86047;SDS011;76643;42.822;23.352;2024-02-23T03:54:01;30.08;;;14.88;;
86047;SDS011;76643;42.822;23.352;2024-02-23T03:56:28;22.10;;;11.95;;
86047;SDS011;76643;42.822;23.352;2024-02-23T03:58:53;18.90;;;10.13;;
86047;SDS011;76643;42.822;23.352;2024-02-23T04:01:18;15.20;;;9.23;;
86047;SDS011;76643;42.822;23.352;2024-02-23T04:03:44;14.50;;;8.40;;
86047;SDS011;76643;42.822;23.352;2024-02-23T04:06:09;15.05;;;9.23;;
86047;SDS011;76643;42.822;23.352;2024-02-23T04:08:34;19.43;;;10.10;;
86047;SDS011;76643;42.822;23.352;2024-02-23T04:11:00;19.52;;;10.10;;
86047;SDS011;76643;42.822;23.352;2024-02-23T04:13:25;19.25;;;10.25;;
86047;SDS011;76643;42.822;23.352;2024-02-23T04:15:51;17.05;;;9.45;;
86047;SDS011;76643;42.822;23.352;2024-02-23T04:18:16;15.93;;;9.80;;
86047;SDS011;76643;42.822;23.352;2024-02-23T04:20:41;14.98;;;7.72;;
86047;SDS011;76643;42.822;23.352;2024-02-23T04:23:07;13.75;;;8.80;;
86047;SDS011;76643;42.822;23.352;2024-02-23T04:25:32;14.63;;;8.20;;
86047;SDS011;76643;42.822;23.352;2024-02-23T04:27:57;14.48;;;8.05;;
86047;SDS011;76643;42.822;23.352;2024-02-23T04:30:23;20.10;;;8.82;;
86047;SDS011;76643;42.822;23.352;2024-02-23T04:32:48;14.50;;;9.25;;
86047;SDS011;76643;42.822;23.352;2024-02-23T04:35:13;16.25;;;8.88;;
86047;SDS011;76643;42.822;23.352;2024-02-23T04:37:39;15.43;;;9.10;;
86047;SDS011;76643;42.822;23.352;2024-02-23T04:40:05;12.98;;;7.97;;
86047;SDS011;76643;42.822;23.352;2024-02-23T04:42:31;12.98;;;8.20;;
86047;SDS011;76643;42.822;23.352;2024-02-23T04:44:56;17.02;;;8.98;;
86047;SDS011;76643;42.822;23.352;2024-02-23T04:47:21;16.05;;;8.10;;
86047;SDS011;76643;42.822;23.352;2024-02-23T04:49:47;14.55;;;7.97;;
86047;SDS011;76643;42.822;23.352;2024-02-23T04:52:12;15.18;;;8.43;;
86047;SDS011;76643;42.822;23.352;2024-02-23T04:54:38;14.10;;;9.25;;
86047;SDS011;76643;42.822;23.352;2024-02-23T04:57:03;14.50;;;8.60;;
86047;SDS011;76643;42.822;23.352;2024-02-23T04:59:28;14.45;;;7.88;;
86047;SDS011;76643;42.822;23.352;2024-02-23T05:01:55;13.60;;;8.93;;
86047;SDS011;76643;42.822;23.352;2024-02-23T05:04:20;16.25;;;9.85;;
86047;SDS011;76643;42.822;23.352;2024-02-23T05:06:45;16.48;;;9.02;;
86047;SDS011;76643;42.822;23.352;2024-02-23T05:09:11;17.85;;;9.90;;
86047;SDS011;76643;42.822;23.352;2024-02-23T05:11:36;23.23;;;11.35;;
86047;SDS011;76643;42.822;23.352;2024-02-23T05:14:02;27.23;;;11.55;;
86047;SDS011;76643;42.822;23.352;2024-02-23T05:16:27;23.98;;;10.70;;
86047;SDS011;76643;42.822;23.352;2024-02-23T05:18:53;19.67;;;9.85;;
86047;SDS011;76643;42.822;23.352;2024-02-23T05:21:18;17.23;;;9.32;;
86047;SDS011;76643;42.822;23.352;2024-02-23T05:23:44;12.15;;;8.45;;
86047;SDS011;76643;42.822;23.352;2024-02-23T05:26:11;14.23;;;8.75;;
86047;SDS011;76643;42.822;23.352;2024-02-23T05:28:36;21.17;;;10.32;;
86047;SDS011;76643;42.822;23.352;2024-02-23T05:31:03;26.40;;;13.10;;
86047;SDS011;76643;42.822;23.352;2024-02-23T05:33:29;22.80;;;12.73;;
86047;SDS011;76643;42.822;23.352;2024-02-23T05:35:55;15.32;;;8.50;;
86047;SDS011;76643;42.822;23.352;2024-02-23T05:38:20;15.50;;;9.48;;
86047;SDS011;76643;42.822;23.352;2024-02-23T05:40:45;16.95;;;8.98;;
86047;SDS011;76643;42.822;23.352;2024-02-23T05:43:13;11.52;;;7.38;;
86047;SDS011;76643;42.822;23.352;2024-02-23T05:45:38;16.52;;;9.25;;
86047;SDS011;76643;42.822;23.352;2024-02-23T05:48:04;14.82;;;8.73;;
86047;SDS011;76643;42.822;23.352;2024-02-23T05:50:29;13.05;;;7.20;;
86047;SDS011;76643;42.822;23.352;2024-02-23T05:52:57;14.75;;;8.57;;
86047;SDS011;76643;42.822;23.352;2024-02-23T05:55:23;14.13;;;7.53;;
86047;SDS011;76643;42.822;23.352;2024-02-23T05:57:49;14.85;;;8.75;;
86047;SDS011;76643;42.822;23.352;2024-02-23T06:00:15;15.90;;;7.95;;
86047;SDS011;76643;42.822;23.352;2024-02-23T06:02:44;13.98;;;8.38;;
86047;SDS011;76643;42.822;23.352;2024-02-23T06:05:09;12.63;;;6.90;;
86047;SDS011;76643;42.822;23.352;2024-02-23T06:07:35;16.15;;;8.15;;
86047;SDS011;76643;42.822;23.352;2024-02-23T06:10:01;11.05;;;7.05;;
86047;SDS011;76643;42.822;23.352;2024-02-23T06:12:27;13.35;;;7.53;;
86047;SDS011;76643;42.822;23.352;2024-02-23T06:14:52;13.00;;;7.32;;
86047;SDS011;76643;42.822;23.352;2024-02-23T06:17:18;13.45;;;8.27;;
86047;SDS011;76643;42.822;23.352;2024-02-23T06:19:43;16.35;;;9.38;;
86047;SDS011;76643;42.822;23.352;2024-02-23T06:22:09;16.25;;;9.73;;
86047;SDS011;76643;42.822;23.352;2024-02-23T06:24:35;15.60;;;8.90;;
86047;SDS011;76643;42.822;23.352;2024-02-23T06:27:01;16.88;;;10.40;;
86047;SDS011;76643;42.822;23.352;2024-02-23T06:29:28;14.27;;;9.07;;
86047;SDS011;76643;42.822;23.352;2024-02-23T06:31:54;13.07;;;7.68;;
86047;SDS011;76643;42.822;23.352;2024-02-23T06:34:20;15.55;;;8.57;;
86047;SDS011;76643;42.822;23.352;2024-02-23T06:36:45;13.52;;;9.13;;
86047;SDS011;76643;42.822;23.352;2024-02-23T06:39:11;12.75;;;7.30;;
86047;SDS011;76643;42.822;23.352;2024-02-23T06:41:37;14.93;;;7.65;;
86047;SDS011;76643;42.822;23.352;2024-02-23T06:44:05;15.93;;;8.98;;
86047;SDS011;76643;42.822;23.352;2024-02-23T06:46:36;13.63;;;8.30;;
86047;SDS011;76643;42.822;23.352;2024-02-23T06:49:02;13.07;;;8.10;;
86047;SDS011;76643;42.822;23.352;2024-02-23T06:51:27;12.85;;;7.97;;
86047;SDS011;76643;42.822;23.352;2024-02-23T06:54:03;11.73;;;7.28;;
86047;SDS011;76643;42.822;23.352;2024-02-23T06:56:28;11.18;;;7.07;;
86047;SDS011;76643;42.822;23.352;2024-02-23T06:58:54;13.23;;;8.07;;
86047;SDS011;76643;42.822;23.352;2024-02-23T07:01:22;10.45;;;7.20;;
86047;SDS011;76643;42.822;23.352;2024-02-23T07:03:48;11.65;;;7.22;;
86047;SDS011;76643;42.822;23.352;2024-02-23T07:06:15;26.08;;;14.50;;
86047;SDS011;76643;42.822;23.352;2024-02-23T07:08:43;24.55;;;14.23;;
86047;SDS011;76643;42.822;23.352;2024-02-23T07:11:09;24.33;;;16.08;;
86047;SDS011;76643;42.822;23.352;2024-02-23T07:13:35;23.30;;;15.43;;
86047;SDS011;76643;42.822;23.352;2024-02-23T07:16:00;25.48;;;16.90;;
86047;SDS011;76643;42.822;23.352;2024-02-23T07:18:25;29.05;;;15.60;;
86047;SDS011;76643;42.822;23.352;2024-02-23T07:20:51;25.00;;;14.32;;
86047;SDS011;76643;42.822;23.352;2024-02-23T07:23:16;28.95;;;14.43;;
86047;SDS011;76643;42.822;23.352;2024-02-23T07:25:42;17.10;;;12.77;;
86047;SDS011;76643;42.822;23.352;2024-02-23T07:28:07;17.75;;;11.02;;
86047;SDS011;76643;42.822;23.352;2024-02-23T07:30:33;23.83;;;12.02;;
86047;SDS011;76643;42.822;23.352;2024-02-23T07:33:00;26.70;;;13.52;;
86047;SDS011;76643;42.822;23.352;2024-02-23T07:35:25;24.95;;;13.80;;
86047;SDS011;76643;42.822;23.352;2024-02-23T07:37:50;24.67;;;14.02;;
86047;SDS011;76643;42.822;23.352;2024-02-23T07:40:16;22.52;;;12.98;;
86047;SDS011;76643;42.822;23.352;2024-02-23T07:42:41;19.30;;;13.10;;
86047;SDS011;76643;42.822;23.352;2024-02-23T07:45:07;26.45;;;14.20;;
86047;SDS011;76643;42.822;23.352;2024-02-23T07:47:34;25.05;;;14.70;;
86047;SDS011;76643;42.822;23.352;2024-02-23T07:50:00;21.83;;;13.15;;
86047;SDS011;76643;42.822;23.352;2024-02-23T07:52:25;20.40;;;13.07;;
86047;SDS011;76643;42.822;23.352;2024-02-23T07:54:51;20.95;;;13.52;;
86047;SDS011;76643;42.822;23.352;2024-02-23T07:57:17;17.77;;;11.43;;
86047;SDS011;76643;42.822;23.352;2024-02-23T07:59:43;21.40;;;10.63;;
86047;SDS011;76643;42.822;23.352;2024-02-23T08:02:09;23.38;;;9.23;;
86047;SDS011;76643;42.822;23.352;2024-02-23T08:04:34;13.93;;;8.52;;
86047;SDS011;76643;42.822;23.352;2024-02-23T08:07:00;25.35;;;15.48;;
86047;SDS011;76643;42.822;23.352;2024-02-23T08:09:25;19.67;;;11.93;;
86047;SDS011;76643;42.822;23.352;2024-02-23T08:11:50;14.00;;;9.18;;
86047;SDS011;76643;42.822;23.352;2024-02-23T08:14:16;17.10;;;8.95;;
86047;SDS011;76643;42.822;23.352;2024-02-23T08:16:41;11.25;;;6.68;;
86047;SDS011;76643;42.822;23.352;2024-02-23T08:19:07;9.93;;;6.33;;
86047;SDS011;76643;42.822;23.352;2024-02-23T08:21:33;10.70;;;6.45;;
86047;SDS011;76643;42.822;23.352;2024-02-23T08:23:58;11.70;;;6.30;;
86047;SDS011;76643;42.822;23.352;2024-02-23T08:26:24;9.75;;;6.68;;
86047;SDS011;76643;42.822;23.352;2024-02-23T08:28:49;9.27;;;5.35;;
86047;SDS011;76643;42.822;23.352;2024-02-23T08:31:14;8.48;;;5.78;;
86047;SDS011;76643;42.822;23.352;2024-02-23T08:33:41;9.50;;;5.63;;
86047;SDS011;76643;42.822;23.352;2024-02-23T08:36:07;11.68;;;6.15;;
86047;SDS011;76643;42.822;23.352;2024-02-23T08:38:32;8.85;;;5.53;;
86047;SDS011;76643;42.822;23.352;2024-02-23T08:40:58;8.02;;;4.78;;
86047;SDS011;76643;42.822;23.352;2024-02-23T08:43:24;7.15;;;4.40;;
86047;SDS011;76643;42.822;23.352;2024-02-23T08:45:49;10.88;;;6.47;;
86047;SDS011;76643;42.822;23.352;2024-02-23T08:48:14;25.98;;;11.23;;
86047;SDS011;76643;42.822;23.352;2024-02-23T08:50:40;10.75;;;5.55;;
86047;SDS011;76643;42.822;23.352;2024-02-23T08:53:06;7.95;;;4.40;;
86047;SDS011;76643;42.822;23.352;2024-02-23T08:55:32;5.88;;;3.97;;
86047;SDS011;76643;42.822;23.352;2024-02-23T08:57:58;6.75;;;4.07;;
86047;SDS011;76643;42.822;23.352;2024-02-23T09:00:23;6.18;;;4.22;;
86047;SDS011;76643;42.822;23.352;2024-02-23T09:02:49;5.88;;;4.20;;
86047;SDS011;76643;42.822;23.352;2024-02-23T09:05:15;7.47;;;4.28;;
86047;SDS011;76643;42.822;23.352;2024-02-23T09:07:40;9.15;;;4.82;;
86047;SDS011;76643;42.822;23.352;2024-02-23T09:10:06;7.65;;;3.88;;
86047;SDS011;76643;42.822;23.352;2024-02-23T09:12:34;7.82;;;4.93;;
86047;SDS011;76643;42.822;23.352;2024-02-23T09:15:00;4.95;;;3.53;;
86047;SDS011;76643;42.822;23.352;2024-02-23T09:17:25;7.07;;;3.97;;
86047;SDS011;76643;42.822;23.352;2024-02-23T09:19:51;7.78;;;3.88;;
86047;SDS011;76643;42.822;23.352;2024-02-23T09:22:17;7.38;;;4.10;;
86047;SDS011;76643;42.822;23.352;2024-02-23T09:24:42;5.07;;;3.13;;
86047;SDS011;76643;42.822;23.352;2024-02-23T09:27:08;6.50;;;3.75;;
86047;SDS011;76643;42.822;23.352;2024-02-23T09:29:33;7.47;;;3.83;;
86047;SDS011;76643;42.822;23.352;2024-02-23T09:31:59;5.75;;;3.50;;
86047;SDS011;76643;42.822;23.352;2024-02-23T09:34:25;5.35;;;3.20;;
86047;SDS011;76643;42.822;23.352;2024-02-23T09:36:51;6.20;;;4.13;;
86047;SDS011;76643;42.822;23.352;2024-02-23T09:39:16;6.97;;;4.43;;
86047;SDS011;76643;42.822;23.352;2024-02-23T09:41:42;5.72;;;3.83;;
86047;SDS011;76643;42.822;23.352;2024-02-23T09:44:08;4.65;;;2.63;;
86047;SDS011;76643;42.822;23.352;2024-02-23T09:46:34;7.72;;;4.45;;
86047;SDS011;76643;42.822;23.352;2024-02-23T09:49:02;6.72;;;3.92;;
86047;SDS011;76643;42.822;23.352;2024-02-23T09:51:28;10.23;;;4.57;;
86047;SDS011;76643;42.822;23.352;2024-02-23T09:53:54;18.88;;;7.60;;
86047;SDS011;76643;42.822;23.352;2024-02-23T09:56:21;5.53;;;3.08;;
86047;SDS011;76643;42.822;23.352;2024-02-23T09:58:51;6.15;;;4.18;;
86047;SDS011;76643;42.822;23.352;2024-02-23T10:01:20;4.68;;;3.45;;
86047;SDS011;76643;42.822;23.352;2024-02-23T10:03:58;7.07;;;3.47;;
86047;SDS011;76643;42.822;23.352;2024-02-23T10:06:24;3.03;;;2.03;;
86047;SDS011;76643;42.822;23.352;2024-02-23T10:08:50;3.13;;;2.15;;
86047;SDS011;76643;42.822;23.352;2024-02-23T10:11:19;4.90;;;2.65;;
86047;SDS011;76643;42.822;23.352;2024-02-23T10:13:46;7.25;;;2.83;;
86047;SDS011;76643;42.822;23.352;2024-02-23T10:16:14;5.90;;;2.78;;
86047;SDS011;76643;42.822;23.352;2024-02-23T10:18:39;5.40;;;2.53;;
86047;SDS011;76643;42.822;23.352;2024-02-23T10:21:05;5.00;;;2.38;;
86047;SDS011;76643;42.822;23.352;2024-02-23T10:23:30;4.30;;;1.90;;
86047;SDS011;76643;42.822;23.352;2024-02-23T10:25:56;6.32;;;3.20;;
86047;SDS011;76643;42.822;23.352;2024-02-23T10:28:21;3.63;;;2.05;;
86047;SDS011;76643;42.822;23.352;2024-02-23T10:30:47;4.75;;;2.50;;
86047;SDS011;76643;42.822;23.352;2024-02-23T10:33:13;6.63;;;2.22;;
86047;SDS011;76643;42.822;23.352;2024-02-23T10:35:39;3.47;;;2.30;;
86047;SDS011;76643;42.822;23.352;2024-02-23T10:38:10;4.57;;;2.53;;
86047;SDS011;76643;42.822;23.352;2024-02-23T10:40:38;5.22;;;3.03;;
86047;SDS011;76643;42.822;23.352;2024-02-23T10:43:09;5.18;;;3.22;;
86047;SDS011;76643;42.822;23.352;2024-02-23T10:45:41;2.58;;;1.60;;
86047;SDS011;76643;42.822;23.352;2024-02-23T10:48:08;17.88;;;9.50;;
86047;SDS011;76643;42.822;23.352;2024-02-23T10:50:35;24.25;;;11.77;;
86047;SDS011;76643;42.822;23.352;2024-02-23T10:53:02;3.42;;;2.35;;
86047;SDS011;76643;42.822;23.352;2024-02-23T10:55:33;11.02;;;5.38;;
86047;SDS011;76643;42.822;23.352;2024-02-23T10:58:02;8.63;;;5.60;;
86047;SDS011;76643;42.822;23.352;2024-02-23T11:00:28;5.75;;;3.90;;
86047;SDS011;76643;42.822;23.352;2024-02-23T11:02:54;5.63;;;2.35;;
86047;SDS011;76643;42.822;23.352;2024-02-23T11:05:20;4.53;;;2.88;;
86047;SDS011;76643;42.822;23.352;2024-02-23T11:07:47;4.72;;;2.50;;
86047;SDS011;76643;42.822;23.352;2024-02-23T11:10:16;6.38;;;2.95;;
86047;SDS011;76643;42.822;23.352;2024-02-23T11:12:42;5.97;;;2.55;;
86047;SDS011;76643;42.822;23.352;2024-02-23T11:15:08;6.05;;;2.45;;
86047;SDS011;76643;42.822;23.352;2024-02-23T11:17:36;5.45;;;3.00;;
86047;SDS011;76643;42.822;23.352;2024-02-23T11:20:04;2.88;;;1.60;;
86047;SDS011;76643;42.822;23.352;2024-02-23T11:22:31;4.10;;;2.00;;
86047;SDS011;76643;42.822;23.352;2024-02-23T11:25:03;5.53;;;2.63;;
86047;SDS011;76643;42.822;23.352;2024-02-23T11:27:30;7.13;;;2.42;;
86047;SDS011;76643;42.822;23.352;2024-02-23T11:30:01;4.78;;;2.30;;
86047;SDS011;76643;42.822;23.352;2024-02-23T11:32:40;3.80;;;1.98;;
86047;SDS011;76643;42.822;23.352;2024-02-23T11:35:08;4.38;;;1.85;;
86047;SDS011;76643;42.822;23.352;2024-02-23T11:37:54;3.85;;;2.22;;
86047;SDS011;76643;42.822;23.352;2024-02-23T11:40:24;3.42;;;1.88;;
86047;SDS011;76643;42.822;23.352;2024-02-23T11:42:51;9.10;;;3.85;;
86047;SDS011;76643;42.822;23.352;2024-02-23T11:45:17;5.82;;;1.98;;
86047;SDS011;76643;42.822;23.352;2024-02-23T11:47:42;3.88;;;2.08;;
86047;SDS011;76643;42.822;23.352;2024-02-23T11:50:08;5.43;;;3.30;;
86047;SDS011;76643;42.822;23.352;2024-02-23T11:52:36;4.65;;;2.25;;
86047;SDS011;76643;42.822;23.352;2024-02-23T11:55:02;5.55;;;3.03;;
86047;SDS011;76643;42.822;23.352;2024-02-23T11:57:30;2.15;;;1.52;;
86047;SDS011;76643;42.822;23.352;2024-02-23T11:59:56;3.08;;;1.40;;
86047;SDS011;76643;42.822;23.352;2024-02-23T12:02:21;4.10;;;2.30;;
86047;SDS011;76643;42.822;23.352;2024-02-23T12:04:49;2.70;;;1.40;;
86047;SDS011;76643;42.822;23.352;2024-02-23T12:07:14;3.15;;;1.65;;
86047;SDS011;76643;42.822;23.352;2024-02-23T12:09:41;6.00;;;1.70;;
86047;SDS011;76643;42.822;23.352;2024-02-23T12:12:06;4.72;;;1.95;;
86047;SDS011;76643;42.822;23.352;2024-02-23T12:14:34;4.85;;;2.25;;
86047;SDS011;76643;42.822;23.352;2024-02-23T12:17:01;3.10;;;1.80;;
86047;SDS011;76643;42.822;23.352;2024-02-23T12:19:32;6.75;;;2.63;;
86047;SDS011;76643;42.822;23.352;2024-02-23T12:22:00;5.20;;;2.05;;
86047;SDS011;76643;42.822;23.352;2024-02-23T12:24:26;2.03;;;1.45;;
86047;SDS011;76643;42.822;23.352;2024-02-23T12:26:56;2.60;;;1.75;;
86047;SDS011;76643;42.822;23.352;2024-02-23T12:29:21;3.60;;;1.80;;
86047;SDS011;76643;42.822;23.352;2024-02-23T12:31:47;4.68;;;2.28;;
86047;SDS011;76643;42.822;23.352;2024-02-23T12:34:13;3.58;;;2.35;;
86047;SDS011;76643;42.822;23.352;2024-02-23T12:36:39;1.95;;;1.30;;
86047;SDS011;76643;42.822;23.352;2024-02-23T12:39:04;3.67;;;2.25;;
86047;SDS011;76643;42.822;23.352;2024-02-23T12:41:30;3.20;;;1.40;;
86047;SDS011;76643;42.822;23.352;2024-02-23T12:43:56;3.00;;;1.50;;
86047;SDS011;76643;42.822;23.352;2024-02-23T12:46:21;4.70;;;1.50;;
86047;SDS011;76643;42.822;23.352;2024-02-23T12:48:48;3.75;;;1.98;;
86047;SDS011;76643;42.822;23.352;2024-02-23T12:51:14;4.88;;;1.88;;
86047;SDS011;76643;42.822;23.352;2024-02-23T12:53:40;4.72;;;2.65;;
86047;SDS011;76643;42.822;23.352;2024-02-23T12:56:07;3.30;;;1.75;;
86047;SDS011;76643;42.822;23.352;2024-02-23T12:58:38;4.55;;;2.20;;
86047;SDS011;76643;42.822;23.352;2024-02-23T13:01:05;5.55;;;2.50;;
86047;SDS011;76643;42.822;23.352;2024-02-23T13:03:31;3.45;;;1.38;;
86047;SDS011;76643;42.822;23.352;2024-02-23T13:05:57;4.50;;;1.58;;
86047;SDS011;76643;42.822;23.352;2024-02-23T13:08:23;2.50;;;1.58;;
86047;SDS011;76643;42.822;23.352;2024-02-23T13:10:49;2.92;;;1.63;;
86047;SDS011;76643;42.822;23.352;2024-02-23T13:13:15;4.70;;;2.60;;
86047;SDS011;76643;42.822;23.352;2024-02-23T13:15:42;3.78;;;2.05;;
86047;SDS011;76643;42.822;23.352;2024-02-23T13:18:08;5.30;;;2.00;;
86047;SDS011;76643;42.822;23.352;2024-02-23T13:20:34;3.10;;;1.60;;
86047;SDS011;76643;42.822;23.352;2024-02-23T13:22:59;5.53;;;2.67;;
86047;SDS011;76643;42.822;23.352;2024-02-23T13:25:24;2.10;;;1.30;;
86047;SDS011;76643;42.822;23.352;2024-02-23T13:27:50;2.83;;;1.30;;
86047;SDS011;76643;42.822;23.352;2024-02-23T13:30:15;3.05;;;1.75;;
86047;SDS011;76643;42.822;23.352;2024-02-23T13:32:41;4.90;;;2.10;;
86047;SDS011;76643;42.822;23.352;2024-02-23T13:35:06;3.10;;;1.75;;
86047;SDS011;76643;42.822;23.352;2024-02-23T13:37:33;2.08;;;1.48;;
86047;SDS011;76643;42.822;23.352;2024-02-23T13:39:59;4.93;;;2.05;;
86047;SDS011;76643;42.822;23.352;2024-02-23T13:42:25;3.88;;;1.65;;
86047;SDS011;76643;42.822;23.352;2024-02-23T13:44:50;5.32;;;1.85;;
86047;SDS011;76643;42.822;23.352;2024-02-23T13:47:15;5.10;;;2.78;;
86047;SDS011;76643;42.822;23.352;2024-02-23T13:49:41;3.38;;;1.63;;
86047;SDS011;76643;42.822;23.352;2024-02-23T13:52:06;2.30;;;1.25;;
86047;SDS011;76643;42.822;23.352;2024-02-23T13:54:32;4.85;;;2.25;;
86047;SDS011;76643;42.822;23.352;2024-02-23T13:56:57;2.92;;;1.35;;
86047;SDS011;76643;42.822;23.352;2024-02-23T13:59:22;5.10;;;1.30;;
86047;SDS011;76643;42.822;23.352;2024-02-23T14:01:48;3.33;;;1.73;;
86047;SDS011;76643;42.822;23.352;2024-02-23T14:04:14;5.90;;;2.00;;
86047;SDS011;76643;42.822;23.352;2024-02-23T14:06:39;3.40;;;1.75;;
86047;SDS011;76643;42.822;23.352;2024-02-23T14:09:04;5.05;;;2.60;;
86047;SDS011;76643;42.822;23.352;2024-02-23T14:11:30;9.80;;;3.15;;
86047;SDS011;76643;42.822;23.352;2024-02-23T14:13:56;5.72;;;2.58;;
86047;SDS011;76643;42.822;23.352;2024-02-23T14:16:21;5.03;;;2.72;;